Larsen, Wisconsin
Current Conditions -  °F | °C
As of 7:45 PM on Wednesday 22 Oct 2014 (Local Time) from KATW Reporting Station
Scattered Clouds Scattered Clouds  
Wind Chill: 39°   Ceiling: Unl
Heat Index: 43°   Visibility: 10mi
Dew Point: 37°   Wind: 7mph
Humidity: 81%   Direction: 130°SE
Pressure: 30.25"   Gusts: NA
Location:  44.19°N, 88.62°W
Report Text: KATW 230045Z 13006KT 10SM SCT120 06/03 A3025
Loading
Personal Weather Stations






























Interactive Weather Map
Tropical Storm Tracking
New forecast layout! Learn more

10-Day Weather Forecast

Advertisements
Track Severe Weather on mobile